Time;durP1;ratioP1;P1;durP2;ratioP2;P2;SDS_P1;SDS_P2;PMS_P1;PMS_P2;Temp;Humidity;BMP_temperature;BMP_pressure;BME280_temperature;BME280_humidity;BME280_pressure;Samples;Min_cycle;Max_cycle;Signal;HPM_P1;HPM_P2
2022/02/15 00:01:57;;;;;;;2.22;0.88;;;;;;;9.38;0.00;60892.56;4860993;28;21096;-89
2022/02/15 00:04:36;;;;;;;1.92;0.68;;;;;;;-145.06;0.00;60892.56;4840505;28;20037;-90
2022/02/15 00:07:15;;;;;;;3.03;0.80;;;;;;;-145.06;0.00;60892.56;4837068;28;20038;-90
2022/02/15 00:09:54;;;;;;;1.52;0.82;;;;;;;8.34;0.00;60892.56;4840256;28;20034;-90
2022/02/15 00:12:33;;;;;;;1.80;0.60;;;;;;;-145.06;0.00;60892.56;4843992;28;20050;-90
2022/02/15 00:15:12;;;;;;;1.67;0.73;;;;;;;-145.06;0.00;60892.56;4836971;28;20512;-90
2022/02/15 00:17:51;;;;;;;0.73;0.70;;;;;;;-145.06;0.00;60892.56;4845360;28;20132;-91
2022/02/15 00:20:30;;;;;;;1.10;0.83;;;;;;;-145.06;0.00;60892.56;4834552;28;20096;-91
2022/02/15 00:23:10;;;;;;;1.90;0.80;;;;;;;-145.06;0.00;60892.56;4830602;28;20391;-90
2022/02/15 00:25:49;;;;;;;1.48;0.80;;;;;;;-145.06;0.00;60892.56;4836227;28;20046;-90
2022/02/15 00:28:28;;;;;;;1.37;0.70;;;;;;;-145.06;0.00;60892.56;4852183;28;20026;-90
2022/02/15 00:31:06;;;;;;;1.27;0.73;;;;;;;-145.06;0.00;60892.56;4838334;28;20034;-91
2022/02/15 00:33:45;;;;;;;1.75;0.77;;;;;;;-145.06;0.00;60892.56;4836491;28;20037;-90
2022/02/15 00:36:25;;;;;;;1.27;0.77;;;;;;;-145.06;0.00;60892.56;4844861;28;20033;-90
2022/02/15 00:39:04;;;;;;;0.90;0.73;;;;;;;-145.06;0.00;60892.56;4843033;28;20041;-90
2022/02/15 00:41:43;;;;;;;1.67;0.85;;;;;;;-145.06;0.00;60892.56;4836843;28;20046;-89
2022/02/15 00:44:22;;;;;;;2.95;0.90;;;;;;;-145.06;0.00;60892.56;4835940;28;20033;-91
2022/02/15 00:47:01;;;;;;;1.48;0.90;;;;;;;-145.06;0.00;60892.56;4836806;28;20038;-90
2022/02/15 00:49:40;;;;;;;1.07;0.83;;;;;;;-145.06;0.00;60892.56;4840163;28;20369;-90
2022/02/15 00:52:19;;;;;;;1.40;1.00;;;;;;;-145.06;0.00;60892.56;4844941;28;20281;-89
2022/02/15 00:54:58;;;;;;;1.53;0.97;;;;;;;-145.06;0.00;60892.56;4836603;28;20049;-90
2022/02/15 00:57:37;;;;;;;1.08;0.90;;;;;;;-145.06;0.00;60892.56;4837414;28;20018;-91
2022/02/15 01:00:17;;;;;;;1.33;1.10;;;;;;;-145.06;0.00;60892.56;4837066;28;20038;-90
2022/02/15 01:02:55;;;;;;;1.40;0.90;;;;;;;-145.06;0.00;60892.56;4835843;28;20121;-90
2022/02/15 01:05:34;;;;;;;1.57;0.77;;;;;;;-145.06;0.00;60892.56;4829582;28;20038;-89
2022/02/15 01:08:13;;;;;;;2.23;1.00;;;;;;;-145.06;0.00;60892.56;4831350;28;20344;-90
2022/02/15 01:10:52;;;;;;;1.10;0.70;;;;;;;8.67;0.00;60892.56;4826157;28;20034;-90
2022/02/15 01:13:31;;;;;;;1.30;0.85;;;;;;;-145.06;0.00;60892.56;4837776;28;20033;-90
2022/02/15 01:16:12;;;;;;;0.77;0.70;;;;;;;-145.06;0.00;60892.56;4833192;28;20034;-90
2022/02/15 01:18:51;;;;;;;1.27;0.70;;;;;;;-145.06;0.00;60892.56;4837648;28;20030;-90
2022/02/15 01:21:30;;;;;;;1.05;0.95;;;;;;;-145.06;0.00;60892.56;4854783;28;20033;-91
2022/02/15 01:24:09;;;;;;;1.67;0.70;;;;;;;-145.06;0.00;60892.56;4838518;28;20128;-90
2022/02/15 01:26:48;;;;;;;1.57;0.90;;;;;;;-145.06;0.00;60892.56;4836848;28;20046;-90
2022/02/15 01:29:27;;;;;;;1.23;0.97;;;;;;;-145.06;0.00;60892.56;4835763;28;20034;-90
2022/02/15 01:32:06;;;;;;;1.55;0.75;;;;;;;-145.06;0.00;60892.56;4838354;28;20033;-90
2022/02/15 01:34:45;;;;;;;1.35;0.90;;;;;;;-145.06;0.00;60892.56;4839458;28;20045;-90
2022/02/15 01:37:26;;;;;;;1.48;0.98;;;;;;;-145.06;0.00;60892.56;4844583;28;20033;-90
2022/02/15 01:40:06;;;;;;;1.33;0.70;;;;;;;-145.06;0.00;60892.56;4834236;28;20041;-90
2022/02/15 01:42:45;;;;;;;;;;;;;;;-145.06;0.00;60892.56;4829295;28;20033;-90
2022/02/15 01:45:24;;;;;;;0.90;0.80;;;;;;;-145.06;0.00;60892.56;4835306;28;19913;-90
2022/02/15 01:48:03;;;;;;;1.07;0.90;;;;;;;-145.06;0.00;60892.56;4849111;28;20030;-90
2022/02/15 01:50:42;;;;;;;0.90;0.70;;;;;;;-145.06;0.00;60892.56;4830734;28;20624;-90
2022/02/15 01:53:21;;;;;;;2.25;0.90;;;;;;;-145.06;0.00;60892.56;4852309;28;20037;-91
2022/02/15 01:56:01;;;;;;;2.03;1.00;;;;;;;-145.06;0.00;60892.56;4845428;28;20038;-90
2022/02/15 01:58:41;;;;;;;1.10;0.90;;;;;;;-145.06;0.00;60892.56;4844324;28;20476;-90
2022/02/15 02:01:20;;;;;;;;;;;;;;;-145.06;0.00;60892.56;4830018;28;20034;-91
2022/02/15 02:03:59;;;;;;;0.53;0.50;;;;;;;-145.06;0.00;60892.56;4840660;28;19910;-90
2022/02/15 02:06:38;;;;;;;3.07;0.73;;;;;;;-145.06;0.00;60892.56;4837313;28;20026;-90
2022/02/15 02:09:17;;;;;;;1.67;0.93;;;;;;;-145.06;0.00;60892.56;4851561;28;20030;-91
2022/02/15 02:11:56;;;;;;;2.05;0.90;;;;;;;-145.06;0.00;60892.56;4834231;28;20065;-89
2022/02/15 02:14:35;;;;;;;2.08;0.88;;;;;;;-145.06;0.00;60892.56;4835935;28;20046;-90
2022/02/15 02:17:14;;;;;;;1.70;0.90;;;;;;;-145.06;0.00;60892.56;4852627;28;20112;-90
2022/02/15 02:19:54;;;;;;;1.05;0.75;;;;;;;-145.06;0.00;60892.56;4839866;28;20766;-90
2022/02/15 02:22:34;;;;;;;1.00;0.73;;;;;;;-145.06;0.00;60892.56;4839295;28;20034;-90
2022/02/15 02:25:17;;;;;;;1.63;0.80;;;;;;;-145.06;0.00;60892.56;4837238;28;20066;-91
2022/02/15 02:27:59;;;;;;;1.92;1.10;;;;;;;-145.06;0.00;60892.56;4861156;28;20509;-91
2022/02/15 02:30:38;;;;;;;0.90;0.70;;;;;;;-145.06;0.00;60892.56;4840198;28;20034;-90
2022/02/15 02:33:17;;;;;;;1.85;0.80;;;;;;;-145.06;0.00;60892.56;4838655;28;20026;-90
2022/02/15 02:36:00;;;;;;;1.48;0.95;;;;;;;-145.06;0.00;60892.56;4837106;28;20033;-90
2022/02/15 02:38:39;;;;;;;1.20;0.80;;;;;;;-145.06;0.00;60892.56;4853491;28;20025;-91
2022/02/15 02:41:18;;;;;;;1.27;0.80;;;;;;;-145.06;0.00;60892.56;4842272;28;20061;-90
2022/02/15 02:43:57;;;;;;;0.70;0.57;;;;;;;-145.06;0.00;60892.56;4836529;28;20068;-90
2022/02/15 02:46:36;;;;;;;1.37;0.80;;;;;;;-145.06;0.00;60892.56;4823099;28;20549;-90
2022/02/15 02:49:15;;;;;;;1.10;0.70;;;;;;;-145.06;0.00;60892.56;4844738;28;20257;-90
2022/02/15 02:51:54;;;;;;;1.52;0.73;;;;;;;-145.06;0.00;60892.56;4852566;28;20034;-90
2022/02/15 02:54:33;;;;;;;3.00;0.60;;;;;;;-145.06;0.00;60892.56;4845004;28;20033;-91
2022/02/15 02:57:15;;;;;;;3.28;1.17;;;;;;;-145.06;0.00;60892.56;4828842;28;20372;-90
2022/02/15 02:59:55;;;;;;;1.10;0.77;;;;;;;-145.06;0.00;60892.56;4838554;28;20042;-91
2022/02/15 03:02:34;;;;;;;1.37;0.97;;;;;;;-145.06;0.00;60892.56;4833033;28;20129;-90
2022/02/15 03:05:12;;;;;;;1.97;1.23;;;;;;;-145.06;0.00;60892.56;4847961;28;20524;-90
2022/02/15 03:07:51;;;;;;;2.30;1.17;;;;;;;-145.06;0.00;60892.56;4857897;28;20468;-89
2022/02/15 03:10:30;;;;;;;2.30;1.53;;;;;;;-145.06;0.00;60892.56;4855658;28;20439;-90
2022/02/15 03:13:09;;;;;;;2.15;1.50;;;;;;;-145.06;0.00;60892.56;4832163;28;20034;-89
2022/02/15 03:15:48;;;;;;;1.88;1.33;;;;;;;-145.06;0.00;60892.56;4838823;28;20038;-90
2022/02/15 03:18:27;;;;;;;2.33;1.60;;;;;;;-145.06;0.00;60892.56;4827866;28;20029;-90
2022/02/15 03:21:06;;;;;;;2.20;1.63;;;;;;;-145.06;0.00;60892.56;4845249;28;20030;-89
2022/02/15 03:23:46;;;;;;;2.30;1.67;;;;;;;-145.06;0.00;60892.56;4846727;28;20537;-90
2022/02/15 03:26:25;;;;;;;2.85;1.52;;;;;;;-145.06;0.00;60892.56;4845289;28;20030;-91
2022/02/15 03:29:04;;;;;;;2.38;1.50;;;;;;;-145.06;0.00;60892.56;4831988;28;20113;-90
2022/02/15 03:31:43;;;;;;;2.78;1.38;;;;;;;-145.06;0.00;60892.56;4861723;28;20037;-90
2022/02/15 03:34:22;;;;;;;3.45;1.65;;;;;;;-145.06;0.00;60892.56;4845254;28;20650;-90
2022/02/15 03:37:01;;;;;;;2.43;1.60;;;;;;;-145.06;0.00;60892.56;4841110;28;20034;-89
2022/02/15 03:39:40;;;;;;;2.07;1.60;;;;;;;-145.06;0.00;60892.56;4849627;28;20511;-89
2022/02/15 03:45:17;;;;;;;1.77;1.30;;;;;;;8.41;0.00;60892.56;4838330;28;20034;-89
2022/02/15 03:47:56;;;;;;;4.07;1.53;;;;;;;-145.06;0.00;60892.56;4837082;28;20034;-90
2022/02/15 03:50:35;;;;;;;2.67;1.83;;;;;;;-145.06;0.00;60892.56;4838787;28;20377;-89
2022/02/15 03:53:15;;;;;;;3.17;1.77;;;;;;;-145.06;0.00;60892.56;4845935;28;20360;-89
2022/02/15 03:55:55;;;;;;;2.70;1.85;;;;;;;8.08;0.00;60892.56;4835718;28;20037;-89
2022/02/15 03:58:33;;;;;;;2.67;1.87;;;;;;;-145.06;0.00;60892.56;4837547;28;21572;-88
2022/02/15 04:01:13;;;;;;;2.20;1.60;;;;;;;8.08;0.00;60892.56;4837200;28;20038;-88
2022/02/15 04:03:52;;;;;;;1.90;1.70;;;;;;;-145.06;0.00;60892.56;4850930;28;20034;-88
2022/02/15 04:06:31;;;;;;;3.88;1.90;;;;;;;-145.06;0.00;60892.56;4843136;28;20033;-89
2022/02/15 04:09:10;;;;;;;2.35;1.50;;;;;;;-145.06;0.00;60892.56;4827888;28;20480;-87
2022/02/15 04:11:49;;;;;;;1.97;1.60;;;;;;;-145.06;0.00;60892.56;4836933;28;20037;-89
2022/02/15 04:14:27;;;;;;;3.00;1.90;;;;;;;7.87;0.00;60892.56;4850857;28;20030;-89
2022/02/15 04:17:06;;;;;;;3.00;1.70;;;;;;;-145.06;0.00;60892.56;4843425;28;20029;-88
2022/02/15 04:19:45;;;;;;;3.10;1.47;;;;;;;-145.06;0.00;60892.56;4838539;28;20034;-88
2022/02/15 04:22:24;;;;;;;1.83;1.40;;;;;;;-145.06;0.00;60892.56;4838539;28;20265;-89
2022/02/15 04:25:05;;;;;;;2.10;1.50;;;;;;;-145.06;0.00;60892.56;4842646;28;20265;-89
2022/02/15 04:27:44;;;;;;;2.20;1.52;;;;;;;-145.06;0.00;60892.56;4833368;28;20273;-87
2022/02/15 04:30:23;;;;;;;1.23;1.13;;;;;;;7.87;0.00;60892.56;4836501;28;20533;-89
2022/02/15 04:33:02;;;;;;;2.47;1.45;;;;;;;7.91;0.00;79809.66;4835477;28;20026;-88
2022/02/15 04:35:41;;;;;;;2.38;1.40;;;;;;;-145.06;0.00;60892.56;4850206;28;20037;-88
2022/02/15 04:38:20;;;;;;;2.38;1.48;;;;;;;-145.06;0.00;60892.56;4838946;28;20476;-88
2022/02/15 04:40:59;;;;;;;1.53;1.30;;;;;;;-145.06;0.00;60892.56;4845417;28;20037;-87
2022/02/15 04:43:38;;;;;;;1.58;1.25;;;;;;;7.88;0.00;60892.56;4836777;28;20480;-88
2022/02/15 04:46:17;;;;;;;2.40;1.63;;;;;;;-145.06;0.00;60892.56;4833905;28;20038;-88
2022/02/15 04:48:56;;;;;;;;;;;;;;;7.93;0.00;60892.56;4836363;28;20361;-89
2022/02/15 04:51:36;;;;;;;1.70;1.40;;;;;;;7.90;0.00;60892.56;4842977;28;19957;-89
2022/02/15 04:54:17;;;;;;;2.13;1.50;;;;;;;7.90;0.00;60892.56;4839257;28;20503;-89
2022/02/15 04:56:56;;;;;;;1.42;1.25;;;;;;;8.08;0.00;60892.56;4834411;28;20257;-89
2022/02/15 04:59:35;;;;;;;1.55;1.30;;;;;;;-145.06;0.00;60892.56;4835849;28;20034;-90
2022/02/15 05:02:14;;;;;;;2.53;1.67;;;;;;;-145.06;0.00;60892.56;4850926;28;20026;-88
2022/02/15 05:04:54;;;;;;;2.13;1.50;;;;;;;-145.06;0.00;60892.56;4837891;28;20272;-88
2022/02/15 05:07:35;;;;;;;;;;;;;;;7.85;0.00;60892.56;4848103;28;20038;-89
2022/02/15 05:10:14;;;;;;;1.27;1.17;;;;;;;-145.06;0.00;60892.56;4849788;28;19917;-88
2022/02/15 05:12:53;;;;;;;2.97;1.58;;;;;;;-145.06;0.00;60892.56;4839088;28;20029;-88
2022/02/15 05:15:32;;;;;;;2.53;1.80;;;;;;;-145.06;0.00;60892.56;4831056;28;20029;-88
2022/02/15 05:18:11;;;;;;;2.63;1.80;;;;;;;-145.06;0.00;60892.56;4834974;28;20045;-88
2022/02/15 05:20:50;;;;;;;2.73;1.57;;;;;;;-145.06;0.00;60892.56;4846152;28;20041;-87
2022/02/15 05:23:30;;;;;;;2.67;1.40;;;;;;;-145.06;0.00;60892.56;4847217;28;20077;-89
2022/02/15 05:26:09;;;;;;;2.30;1.40;;;;;;;-145.06;0.00;60892.56;4860488;28;20033;-87
2022/02/15 05:28:48;;;;;;;2.57;1.50;;;;;;;-145.06;0.00;60892.56;4834955;28;20033;-88
2022/02/15 05:31:27;;;;;;;2.70;1.83;;;;;;;-145.06;0.00;60892.56;4838013;28;20272;-87
2022/02/15 05:34:06;;;;;;;1.77;1.30;;;;;;;-145.06;0.00;60892.56;4834997;28;20042;-86
2022/02/15 05:36:45;;;;;;;1.67;1.40;;;;;;;-145.06;0.00;60892.56;4834409;28;20775;-88
2022/02/15 05:39:24;;;;;;;1.75;1.38;;;;;;;-145.06;0.00;60892.56;4826353;28;20039;-88
2022/02/15 05:42:03;;;;;;;3.37;1.30;;;;;;;-145.06;0.00;60892.56;4841125;28;20041;-88
2022/02/15 05:44:42;;;;;;;1.52;1.17;;;;;;;-145.06;0.00;60892.56;4841054;28;20766;-87
2022/02/15 05:47:21;;;;;;;1.65;1.13;;;;;;;-145.06;0.00;60892.56;4842648;28;20034;-87
2022/02/15 05:52:58;;;;;;;2.05;1.08;;;;;;;-145.06;0.00;60892.56;4831457;28;20022;-88
2022/02/15 05:55:37;;;;;;;2.30;1.50;;;;;;;-145.06;0.00;60892.56;4850000;28;20045;-88
2022/02/15 05:58:16;;;;;;;1.17;1.08;;;;;;;-145.06;0.00;60892.56;4828835;28;20850;-88
2022/02/15 06:00:58;;;;;;;2.50;1.70;;;;;;;-145.06;0.00;60892.56;4834624;28;20038;-87
2022/02/15 06:06:35;;;;;;;1.50;1.13;;;;;;;-145.06;0.00;60892.56;4834549;28;20652;-86
2022/02/15 06:09:14;;;;;;;1.73;1.50;;;;;;;-145.06;0.00;60892.56;4834632;28;20065;-87
2022/02/15 06:11:53;;;;;;;1.40;1.23;;;;;;;-145.06;0.00;60892.56;4833496;28;20381;-86
2022/02/15 06:14:32;;;;;;;2.47;1.87;;;;;;;-145.06;0.00;60892.56;4828853;28;20301;-86
2022/02/15 06:17:11;;;;;;;2.10;1.30;;;;;;;-145.06;0.00;60892.56;4846233;28;20037;-86
2022/02/15 06:19:50;;;;;;;2.08;1.60;;;;;;;-145.06;0.00;60892.56;4837940;28;20034;-86
2022/02/15 06:22:29;;;;;;;1.57;1.20;;;;;;;-145.06;0.00;60892.56;4836147;28;20042;-86
2022/02/15 06:25:08;;;;;;;2.75;1.90;;;;;;;-145.06;0.00;60892.56;4842811;28;20272;-86
2022/02/15 06:27:47;;;;;;;1.70;1.40;;;;;;;-145.06;0.00;60892.56;4834772;28;20038;-86
2022/02/15 06:30:26;;;;;;;2.10;1.20;;;;;;;-145.06;0.00;60892.56;4831220;28;20491;-87
2022/02/15 06:33:05;;;;;;;2.63;2.05;;;;;;;-145.06;0.00;60892.56;4837084;28;20029;-86
2022/02/15 06:35:44;;;;;;;2.60;1.93;;;;;;;-145.06;0.00;60892.56;4833039;28;20026;-86
2022/02/15 06:38:23;;;;;;;3.38;2.03;;;;;;;-145.06;0.00;60892.56;4837959;28;20632;-87
2022/02/15 06:41:02;;;;;;;4.15;2.22;;;;;;;-145.06;0.00;60892.56;4838317;28;20033;-86
2022/02/15 06:43:41;;;;;;;2.80;1.97;;;;;;;-145.06;0.00;60892.56;4830407;28;20378;-87
2022/02/15 06:46:19;;;;;;;2.50;1.77;;;;;;;-145.06;0.00;60892.56;4835739;28;20381;-86
2022/02/15 06:48:59;;;;;;;2.17;1.97;;;;;;;-145.06;0.00;60892.56;4847010;28;20026;-86
2022/02/15 06:51:38;;;;;;;5.05;2.80;;;;;;;-145.06;0.00;60892.56;4835449;28;20030;-86
2022/02/15 06:54:17;;;;;;;4.13;3.00;;;;;;;-145.06;0.00;60892.56;4827302;28;20038;-87
2022/02/15 06:56:56;;;;;;;4.60;3.03;;;;;;;-145.06;0.00;60892.56;4835384;28;20030;-87
2022/02/15 06:59:35;;;;;;;4.50;3.30;;;;;;;7.23;0.00;60892.56;4833121;28;20121;-87
2022/02/15 07:02:14;;;;;;;6.23;3.83;;;;;;;-145.06;0.00;60892.56;4828216;28;20265;-86
2022/02/15 07:04:53;;;;;;;4.17;3.10;;;;;;;-145.06;0.00;60892.56;4837213;28;20041;-87
2022/02/15 07:07:35;;;;;;;4.40;3.28;;;;;;;-145.06;0.00;60892.56;4826223;28;20113;-88
2022/02/15 07:10:14;;;;;;;4.55;3.20;;;;;;;-145.06;0.00;60892.56;4825490;28;20034;-86
2022/02/15 07:12:53;;;;;;;5.70;3.78;;;;;;;-145.06;0.00;60892.56;4829321;28;20034;-86
2022/02/15 07:15:32;;;;;;;7.00;4.13;;;;;;;-145.06;0.00;60892.56;4827128;28;20038;-87
2022/02/15 07:18:11;;;;;;;5.30;3.60;;;;;;;-145.06;0.00;60892.56;4850100;28;20038;-88
2022/02/15 07:20:50;;;;;;;6.97;3.97;;;;;;;-145.06;0.00;60892.56;4835758;28;20498;-87
2022/02/15 07:23:29;;;;;;;6.43;4.00;;;;;;;8.08;0.00;60892.56;4827309;28;20026;-87
2022/02/15 07:26:08;;;;;;;8.33;4.70;;;;;;;-145.06;0.00;60892.56;4846344;28;20042;-88
2022/02/15 07:28:47;;;;;;;6.00;4.13;;;;;;;-145.06;0.00;60892.56;4822070;28;20026;-87
2022/02/15 07:31:25;;;;;;;6.23;3.57;;;;;;;-145.06;0.00;60892.56;4835322;28;20034;-87
2022/02/15 07:34:05;;;;;;;5.25;3.35;;;;;;;-145.06;0.00;60892.56;4838017;28;20116;-87
2022/02/15 07:36:44;;;;;;;6.57;3.78;;;;;;;-145.06;0.00;60892.56;4832959;28;20030;-87
2022/02/15 07:39:23;;;;;;;6.10;3.97;;;;;;;-145.06;0.00;60892.56;4833376;28;20034;-86
2022/02/15 07:42:02;;;;;;;6.80;4.03;;;;;;;-145.06;0.00;60892.56;4833993;28;20484;-87
2022/02/15 07:44:41;;;;;;;6.50;3.95;;;;;;;-145.06;0.00;60892.56;4838078;28;20034;-87
2022/02/15 07:47:20;;;;;;;7.45;4.43;;;;;;;-145.06;0.00;60892.56;4833820;28;20042;-88
2022/02/15 07:49:59;;;;;;;7.95;3.88;;;;;;;-145.06;0.00;60892.56;4838543;28;20531;-87
2022/02/15 07:52:38;;;;;;;8.65;4.20;;;;;;;-145.06;0.00;60892.56;4832325;28;20026;-87
2022/02/15 07:55:18;;;;;;;7.78;4.43;;;;;;;-145.06;0.00;60892.56;4837620;28;20038;-87
2022/02/15 07:57:57;;;;;;;;;;;;;;;-145.06;0.00;60892.56;4830445;28;20034;-86
2022/02/15 08:00:36;;;;;;;8.50;3.70;;;;;;;-145.06;0.00;60892.56;4832315;28;19910;-87
2022/02/15 08:03:15;;;;;;;6.73;4.33;;;;;;;-145.06;0.00;60892.56;4835554;28;20269;-87
2022/02/15 08:05:54;;;;;;;5.10;3.65;;;;;;;-145.06;0.00;60892.56;4847821;28;20030;-87
2022/02/15 08:08:33;;;;;;;6.33;3.57;;;;;;;-145.06;0.00;60892.56;4825928;28;20062;-87
2022/02/15 08:11:12;;;;;;;5.38;3.63;;;;;;;-145.06;0.00;60892.56;4832714;28;20029;-87
2022/02/15 08:13:53;;;;;;;6.60;3.65;;;;;;;-145.06;0.00;60892.56;4826685;28;20394;-87
2022/02/15 08:16:32;;;;;;;5.13;3.60;;;;;;;-145.06;0.00;60892.56;4831686;28;20365;-88
2022/02/15 08:19:11;;;;;;;7.07;2.73;;;;;;;-145.06;0.00;60892.56;4833357;28;20053;-87
2022/02/15 08:21:50;;;;;;;6.43;3.03;;;;;;;-145.06;0.00;60892.56;4843465;28;20030;-87
2022/02/15 08:24:29;;;;;;;6.10;3.10;;;;;;;-145.06;0.00;60892.56;4830032;28;20030;-88
2022/02/15 08:27:08;;;;;;;6.07;3.17;;;;;;;-145.06;0.00;60892.56;4831160;28;20269;-87
2022/02/15 08:29:47;;;;;;;5.97;3.40;;;;;;;7.60;0.00;60892.56;4824369;28;20474;-86
2022/02/15 08:32:27;;;;;;;5.13;2.70;;;;;;;-145.06;0.00;60892.56;4826220;28;20377;-87
2022/02/15 08:35:08;;;;;;;5.60;3.00;;;;;;;-145.06;0.00;60892.56;4849175;28;20034;-87
2022/02/15 08:37:47;;;;;;;6.35;2.90;;;;;;;-145.06;0.00;60892.56;4830290;28;20033;-87
2022/02/15 08:40:26;;;;;;;7.22;3.20;;;;;;;-145.06;0.00;60892.56;4844268;28;20033;-88
2022/02/15 08:43:05;;;;;;;5.85;3.42;;;;;;;-145.06;0.00;60892.56;4832477;28;20042;-87
2022/02/15 08:45:44;;;;;;;4.15;3.17;;;;;;;7.72;0.00;60892.56;4837015;28;20041;-88
2022/02/15 08:48:23;;;;;;;4.18;2.90;;;;;;;7.74;0.00;60892.56;4837305;28;20376;-88
2022/02/15 08:51:02;;;;;;;4.60;2.70;;;;;;;-145.06;0.00;60892.56;4836561;28;20476;-89
2022/02/15 08:53:43;;;;;;;5.30;3.10;;;;;;;-145.06;0.00;60892.56;4836374;28;20265;-89
2022/02/15 08:56:22;;;;;;;9.20;3.55;;;;;;;-145.06;0.00;60892.56;4838174;28;20459;-88
2022/02/15 08:59:01;;;;;;;5.15;3.63;;;;;;;-145.06;0.00;60892.56;4838661;28;20523;-88
2022/02/15 09:01:40;;;;;;;4.72;3.03;;;;;;;-145.06;0.00;60892.56;4845019;28;20041;-89
2022/02/15 09:04:19;;;;;;;4.47;3.10;;;;;;;-145.06;0.00;60892.56;4836127;28;20556;-88
2022/02/15 09:06:58;;;;;;;5.60;3.53;;;;;;;-145.06;0.00;60892.56;4828801;28;20026;-88
2022/02/15 09:09:38;;;;;;;4.53;2.78;;;;;;;7.86;0.00;60892.56;4845745;28;20027;-89
2022/02/15 09:12:18;;;;;;;5.07;3.20;;;;;;;-145.06;0.00;60892.56;4836917;28;20077;-90
2022/02/15 09:14:57;;;;;;;3.78;2.70;;;;;;;-145.06;0.00;60892.56;4836259;28;20038;-91
2022/02/15 09:17:39;;;;;;;5.55;3.08;;;;;;;-145.06;0.00;60892.56;4838363;28;20034;-90
2022/02/15 09:20:18;;;;;;;4.13;2.67;;;;;;;-145.06;0.00;60892.56;4840831;28;20401;-89
2022/02/15 09:22:57;;;;;;;6.67;3.50;;;;;;;-145.06;0.00;60892.56;4841905;28;20033;-90
2022/02/15 09:25:36;;;;;;;5.13;3.20;;;;;;;-145.06;0.00;60892.56;4845288;28;20038;-90
2022/02/15 09:28:15;;;;;;;4.10;3.03;;;;;;;-145.06;0.00;60892.56;4839967;28;20033;-90
2022/02/15 09:30:54;;;;;;;5.18;2.75;;;;;;;-145.06;0.00;60892.56;4840998;28;20603;-89
2022/02/15 09:33:33;;;;;;;7.15;2.80;;;;;;;-145.06;0.00;60892.56;4830537;28;20034;-90
2022/02/15 09:36:13;;;;;;;4.43;2.88;;;;;;;-145.06;0.00;60892.56;4838085;28;20568;-90
2022/02/15 09:38:52;;;;;;;4.70;2.60;;;;;;;8.00;0.00;60892.56;4854028;28;20022;-90
2022/02/15 09:41:33;;;;;;;3.77;2.17;;;;;;;7.98;0.00;60892.56;4834510;28;20273;-89
2022/02/15 09:44:13;;;;;;;3.88;1.90;;;;;;;7.99;0.00;60892.56;4838392;28;20029;-90
2022/02/15 09:46:54;;;;;;;3.25;2.20;;;;;;;8.01;0.00;60892.56;4840772;28;20417;-90
2022/02/15 09:49:50;;;;;;;;;;;;;;;8.04;0.00;60892.56;4835405;28;20476;-90
2022/02/15 09:52:29;;;;;;;3.47;1.73;;;;;;;-145.06;0.00;60892.56;4838246;28;19909;-90
2022/02/15 09:55:08;;;;;;;3.47;1.92;;;;;;;8.12;0.00;60892.56;4834435;28;20053;-90
2022/02/15 09:57:47;;;;;;;3.03;1.70;;;;;;;-145.06;0.00;60892.56;4849267;28;20059;-90
2022/02/15 10:00:26;;;;;;;3.63;1.80;;;;;;;-145.06;0.00;60892.56;4854359;28;20034;-90
2022/02/15 10:03:05;;;;;;;2.33;1.40;;;;;;;9.38;0.00;60892.56;4838990;28;20033;-90
2022/02/15 10:05:49;;;;;;;2.63;1.52;;;;;;;-145.06;0.00;60892.56;4836821;28;20065;-89
2022/02/15 10:08:30;;;;;;;4.38;1.83;;;;;;;-145.06;0.00;60892.56;4847752;28;20038;-90
2022/02/15 10:11:13;;;;;;;2.65;1.30;;;;;;;-145.06;0.00;60892.56;4849502;28;20184;-91
2022/02/15 10:13:52;;;;;;;2.55;1.58;;;;;;;-145.06;0.00;60892.56;4850610;28;20038;-89
2022/02/15 10:16:31;;;;;;;2.40;1.52;;;;;;;-145.06;0.00;60892.56;4829428;28;20037;-89
2022/02/15 10:19:10;;;;;;;2.42;1.77;;;;;;;-145.06;0.00;60892.56;4843245;28;20030;-90
2022/02/15 10:21:54;;;;;;;3.53;2.00;;;;;;;-145.06;0.00;60892.56;4841552;28;20065;-90
2022/02/15 10:24:35;;;;;;;3.35;2.00;;;;;;;-145.06;0.00;60892.56;4828842;28;20038;-89
2022/02/15 10:27:14;;;;;;;2.80;1.70;;;;;;;-145.06;0.00;60892.56;4834492;28;20061;-90
2022/02/15 10:29:55;;;;;;;4.47;2.20;;;;;;;-145.06;0.00;60892.56;4849539;28;20038;-89
2022/02/15 10:32:33;;;;;;;2.92;2.00;;;;;;;-145.06;0.00;60892.56;4840832;28;20030;-90
2022/02/15 10:35:12;;;;;;;4.78;2.55;;;;;;;-145.06;0.00;60892.56;4837920;28;20034;-89
2022/02/15 10:37:53;;;;;;;6.60;2.85;;;;;;;-145.06;0.00;60892.56;4839160;28;20042;-89
2022/02/15 10:40:34;;;;;;;4.25;2.45;;;;;;;-145.06;0.00;60892.56;4834446;28;20492;-90
2022/02/15 10:43:13;;;;;;;4.00;2.05;;;;;;;-145.06;0.00;60892.56;4837316;28;20030;-90
2022/02/15 10:45:52;;;;;;;5.15;2.25;;;;;;;-145.06;0.00;60892.56;4834543;28;20026;-90
2022/02/15 10:48:32;;;;;;;5.82;2.63;;;;;;;-145.06;0.00;60892.56;4831036;28;20045;-91
2022/02/15 10:51:12;;;;;;;4.90;2.25;;;;;;;-145.06;0.00;60892.56;4821576;28;20519;-90
2022/02/15 10:53:51;;;;;;;;;;;;;;;-145.06;0.00;60892.56;4836404;28;20030;-90
2022/02/15 10:56:32;;;;;;;4.35;2.20;;;;;;;-145.06;0.00;60892.56;4844735;28;19909;-88
2022/02/15 10:59:12;;;;;;;3.80;2.40;;;;;;;-145.06;0.00;60892.56;4838510;28;20042;-90
2022/02/15 11:01:52;;;;;;;6.25;3.38;;;;;;;-145.06;0.00;60892.56;4838912;28;20042;-90
2022/02/15 11:04:32;;;;;;;2.90;2.08;;;;;;;-145.06;0.00;60892.56;4838623;28;20042;-90
2022/02/15 11:07:11;;;;;;;3.67;1.90;;;;;;;-145.06;0.00;60892.56;4839079;28;20038;-90
2022/02/15 11:10:37;;;;;;;3.78;1.80;;;;;;;-145.06;0.00;60892.56;4837158;28;20034;-90
2022/02/15 11:13:16;;;;;;;2.85;1.75;;;;;;;-145.06;0.00;60892.56;4804122;28;20038;-91
2022/02/15 11:15:56;;;;;;;4.10;1.33;;;;;;;-145.06;0.00;60892.56;4853595;28;20529;-91
2022/02/15 11:18:35;;;;;;;2.95;1.40;;;;;;;-145.06;0.00;60892.56;4832510;28;20030;-89
2022/02/15 11:21:23;;;;;;;2.80;1.23;;;;;;;-145.06;0.00;60892.56;4826215;28;20031;-90
2022/02/15 11:24:08;;;;;;;2.92;1.20;;;;;;;-145.06;0.00;60892.56;4845933;28;20038;-90
2022/02/15 11:26:47;;;;;;;3.10;1.20;;;;;;;-145.06;0.00;60892.56;4835275;28;20037;-89
2022/02/15 11:29:26;;;;;;;5.05;1.30;;;;;;;-145.06;0.00;60892.56;4834656;28;20030;-89
2022/02/15 11:32:05;;;;;;;3.57;1.00;;;;;;;-145.06;0.00;60892.56;4832986;28;20377;-90
2022/02/15 11:34:47;;;;;;;2.10;1.15;;;;;;;-145.06;0.00;60892.56;4837821;28;20120;-90
2022/02/15 11:37:28;;;;;;;2.78;0.80;;;;;;;-145.06;0.00;60892.56;4852227;28;20113;-90
2022/02/15 11:40:13;;;;;;;2.75;1.48;;;;;;;-145.06;0.00;60892.56;4832903;28;20026;-90
2022/02/15 11:42:52;;;;;;;3.60;1.70;;;;;;;-145.06;0.00;60892.56;4841094;28;20038;-89
2022/02/15 11:45:32;;;;;;;2.92;1.48;;;;;;;-145.06;0.00;60892.56;4842434;28;20376;-89
2022/02/15 11:48:11;;;;;;;6.90;2.55;;;;;;;-145.06;0.00;60892.56;4830675;28;20037;-90
2022/02/15 11:50:54;;;;;;;3.33;1.80;;;;;;;-145.06;0.00;60892.56;4852206;28;20030;-89
2022/02/15 11:53:32;;;;;;;2.95;1.63;;;;;;;-145.06;0.00;60892.56;4832346;28;20109;-90
2022/02/15 11:56:15;;;;;;;1.97;1.00;;;;;;;-145.06;0.00;60892.56;4833683;28;20030;-90
2022/02/15 11:58:56;;;;;;;3.03;1.35;;;;;;;-145.06;0.00;60892.56;4834658;28;20026;-90
2022/02/15 12:01:36;;;;;;;4.40;1.67;;;;;;;187.52;0.00;60892.56;4826151;28;20045;-91
2022/02/15 12:04:15;;;;;;;;;;;;;;;-145.06;0.00;60892.56;4838089;28;20029;-90
2022/02/15 12:06:58;;;;;;;2.83;1.25;;;;;;;-145.06;0.00;60892.56;4838228;28;19913;-90
2022/02/15 12:09:38;;;;;;;2.83;1.20;;;;;;;-145.06;0.00;60892.56;4829182;28;20022;-90
2022/02/15 12:12:18;;;;;;;;;;;;;;;-145.06;0.00;60892.56;4836498;28;20104;-90
2022/02/15 12:14:58;;;;;;;2.20;1.17;;;;;;;-145.06;0.00;60892.56;4834928;28;19917;-90
2022/02/15 12:17:42;;;;;;;2.58;1.13;;;;;;;-145.06;0.00;60892.56;4839580;28;20038;-89
2022/02/15 12:20:21;;;;;;;4.10;1.27;;;;;;;-145.06;0.00;60892.56;4850426;28;20121;-90
2022/02/15 12:23:02;;;;;;;2.77;1.20;;;;;;;10.68;0.00;60892.56;4825346;28;20030;-89
2022/02/15 12:25:46;;;;;;;2.88;1.00;;;;;;;-145.06;0.00;60892.56;4829879;28;20030;-90
2022/02/15 12:28:26;;;;;;;2.17;0.65;;;;;;;-145.06;0.00;60892.56;4837358;28;20026;-89
2022/02/15 12:31:09;;;;;;;1.13;0.50;;;;;;;-145.06;0.00;60892.56;4837328;28;20026;-89
2022/02/15 12:33:48;;;;;;;1.35;0.57;;;;;;;-145.06;0.00;60892.56;4833360;28;20116;-90
2022/02/15 12:36:33;;;;;;;1.45;0.52;;;;;;;-145.06;0.00;60892.56;4834703;28;20642;-90